Manacor, Spain
Current Conditions -  °F | °C
As of 5:30 PM on Thursday 23 Oct 2014 (Local Time) from LEPA Reporting Station
Clear Clear  
Wind Chill: 75°   Ceiling: Unl
Heat Index: 75°   Visibility: 6mi
Dew Point: 41°   Wind: 10mph
Humidity: 29%   Direction: 310°NW
Pressure: 30.03"   Gusts: NA
Location:  39.57°N, 3.2°E
Report Text: LEPA 231530Z 31009KT 280V340 CAVOK 24/05 Q1017 NOSIG
Loading
Personal Weather Stations






























Interactive Weather Map
Tropical Storm Tracking
New forecast layout! Learn more

10-Day Weather Forecast

Advertisements
Track Severe Weather on mobile